Time;durP1;ratioP1;P1;durP2;ratioP2;P2;SDS_P1;SDS_P2;PMS_P1;PMS_P2;Temp;Humidity;BMP_temperature;BMP_pressure;BME280_temperature;BME280_humidity;BME280_pressure;Samples;Min_cycle;Max_cycle;Signal;HPM_P1;HPM_P2
2021/11/04 00:01:56;;;;;;;10.65;9.15;;;20.50;99.90;;;;;;5073974;28;20547;-75
2021/11/04 00:04:25;;;;;;;9.23;8.52;;;20.40;99.90;;;;;;5074156;28;20017;-75
2021/11/04 00:06:54;;;;;;;10.30;9.00;;;20.50;99.90;;;;;;5074152;28;20074;-75
2021/11/04 00:09:22;;;;;;;9.48;8.73;;;20.40;99.90;;;;;;5074373;28;20016;-76
2021/11/04 00:11:49;;;;;;;9.75;9.13;;;20.40;99.90;;;;;;5073700;28;20527;-75
2021/11/04 00:14:16;;;;;;;9.75;8.95;;;20.40;99.90;;;;;;5074986;28;20051;-75
2021/11/04 00:16:44;;;;;;;11.18;10.15;;;20.40;99.90;;;;;;5074611;28;20013;-76
2021/11/04 00:19:11;;;;;;;10.63;9.90;;;20.40;99.90;;;;;;5074311;28;20133;-78
2021/11/04 00:21:39;;;;;;;11.05;10.13;;;20.40;99.90;;;;;;5074103;28;20043;-79
2021/11/04 00:24:06;;;;;;;10.60;9.60;;;20.30;99.90;;;;;;5072932;28;20020;-75
2021/11/04 00:26:37;;;;;;;11.45;10.52;;;20.50;99.90;;;;;;5072701;28;20025;-75
2021/11/04 00:29:04;;;;;;;11.18;10.10;;;20.50;99.90;;;;;;5074528;28;20017;-78
2021/11/04 00:31:31;;;;;;;11.88;10.77;;;20.40;99.90;;;;;;5075974;28;20031;-75
2021/11/04 00:34:02;;;;;;;11.63;10.75;;;20.40;99.90;;;;;;5077295;28;20012;-76
2021/11/04 00:36:36;;;;;;;11.70;10.60;;;20.50;99.90;;;;;;5076823;28;20032;-78
2021/11/04 00:39:08;;;;;;;12.05;11.05;;;20.40;99.90;;;;;;5077840;28;20033;-77
2021/11/04 00:41:38;;;;;;;12.25;11.40;;;20.40;99.90;;;;;;5076894;28;20029;-77
2021/11/04 00:44:16;;;;;;;11.45;10.75;;;20.50;99.90;;;;;;5077613;28;20033;-74
2021/11/04 00:46:45;;;;;;;11.98;11.20;;;20.60;99.90;;;;;;5076267;28;20016;-71
2021/11/04 00:49:26;;;;;;;12.10;11.00;;;20.50;99.90;;;;;;5077212;28;20055;-73
2021/11/04 00:51:59;;;;;;;17.75;11.93;;;20.60;99.90;;;;;;5077360;28;20123;-73
2021/11/04 00:54:28;;;;;;;12.38;11.68;;;20.60;99.90;;;;;;5075326;28;20036;-73
2021/11/04 00:57:01;;;;;;;12.60;11.65;;;20.70;99.90;;;;;;5076415;28;20032;-74
2021/11/04 00:59:37;;;;;;;11.95;11.15;;;20.70;99.90;;;;;;5077697;28;20031;-73
2021/11/04 01:02:07;;;;;;;12.23;11.27;;;20.60;99.90;;;;;;5075724;28;20024;-73
2021/11/04 01:04:34;;;;;;;12.32;11.38;;;20.50;99.90;;;;;;5073854;28;20052;-73
2021/11/04 01:07:05;;;;;;;13.00;11.82;;;20.60;99.90;;;;;;5076819;28;20117;-73
2021/11/04 01:09:33;;;;;;;13.05;12.10;;;20.60;99.90;;;;;;5076897;28;20025;-73
2021/11/04 01:12:03;;;;;;;13.23;12.07;;;20.80;99.90;;;;;;5075742;28;20044;-72
2021/11/04 01:14:32;;;;;;;12.82;11.65;;;20.80;99.90;;;;;;5076609;28;20041;-74
2021/11/04 01:16:59;;;;;;;12.30;11.27;;;20.70;99.90;;;;;;5074817;28;20021;-74
2021/11/04 01:19:27;;;;;;;12.23;11.30;;;20.60;99.90;;;;;;5076538;28;20381;-76
2021/11/04 01:21:55;;;;;;;12.73;11.93;;;20.60;99.90;;;;;;5076968;28;20016;-76
2021/11/04 01:24:23;;;;;;;13.20;12.20;;;20.60;99.90;;;;;;5074921;28;20123;-75
2021/11/04 01:26:51;;;;;;;12.60;11.60;;;20.60;99.90;;;;;;5075455;28;20041;-75
2021/11/04 01:29:19;;;;;;;12.63;11.75;;;20.70;99.90;;;;;;5075567;28;20028;-75
2021/11/04 01:31:51;;;;;;;13.10;12.07;;;20.60;99.90;;;;;;5075596;28;20032;-76
2021/11/04 01:34:20;;;;;;;12.75;11.70;;;20.70;99.90;;;;;;5075746;28;20389;-75
2021/11/04 01:36:52;;;;;;;11.70;10.73;;;20.70;99.90;;;;;;5075001;28;20098;-76
2021/11/04 01:39:19;;;;;;;12.18;11.38;;;20.40;99.90;;;;;;5076425;28;20074;-75
2021/11/04 01:41:47;;;;;;;12.70;11.65;;;20.50;99.90;;;;;;5075002;28;20097;-75
2021/11/04 01:44:15;;;;;;;12.10;11.20;;;20.40;99.90;;;;;;5073999;28;20031;-74
2021/11/04 01:46:44;;;;;;;13.48;12.38;;;20.40;99.90;;;;;;5074779;28;20024;-75
2021/11/04 01:49:11;;;;;;;12.77;11.77;;;20.30;99.90;;;;;;5076216;28;20092;-75
2021/11/04 01:51:40;;;;;;;13.45;12.25;;;20.30;99.90;;;;;;5075986;28;20025;-75
2021/11/04 01:54:08;;;;;;;13.13;12.18;;;20.20;99.90;;;;;;5074509;28;20027;-77
2021/11/04 01:56:40;;;;;;;13.32;12.32;;;20.30;99.90;;;;;;5075621;28;20059;-76
2021/11/04 01:59:09;;;;;;;13.48;12.48;;;20.40;99.90;;;;;;5074456;28;20028;-76
2021/11/04 02:01:39;;;;;;;13.35;12.43;;;20.40;99.90;;;;;;5074554;28;20516;-77
2021/11/04 02:04:30;;;;;;;12.98;12.25;;;20.40;99.90;;;;;;5074231;28;20016;-74
2021/11/04 02:07:25;;;;;;;13.50;12.60;;;20.30;99.90;;;;;;5074362;28;20176;-76
2021/11/04 02:10:07;;;;;;;14.15;12.88;;;20.50;99.90;;;;;;5075807;28;20090;-76
2021/11/04 02:13:00;;;;;;;13.43;12.50;;;20.60;99.90;;;;;;5075193;28;20032;-77
2021/11/04 02:15:33;;;;;;;12.90;12.00;;;20.60;99.90;;;;;;5075356;28;20366;-73
2021/11/04 02:18:04;;;;;;;13.65;12.40;;;20.70;99.90;;;;;;5075303;28;20064;-74
2021/11/04 02:21:02;;;;;;;13.55;12.50;;;20.90;99.90;;;;;;5058361;28;20036;-81
2021/11/04 02:23:32;;;;;;;;;;;20.90;99.90;;;;;;5075669;28;20041;-78
2021/11/04 02:26:05;;;;;;;14.65;13.35;;;20.70;99.90;;;;;;5075006;28;19915;-74
2021/11/04 02:28:34;;;;;;;15.18;13.95;;;20.90;99.90;;;;;;5074507;28;20108;-79
2021/11/04 02:31:06;;;;;;;14.43;13.40;;;20.90;99.90;;;;;;5075358;28;20017;-74
2021/11/04 02:33:39;;;;;;;14.85;13.63;;;20.80;99.90;;;;;;5075203;28;20028;-76
2021/11/04 02:36:09;;;;;;;14.70;13.48;;;20.70;99.90;;;;;;5080806;28;20082;-78
2021/11/04 02:38:37;;;;;;;15.13;13.85;;;20.70;99.90;;;;;;5074245;28;20025;-75
2021/11/04 02:41:07;;;;;;;14.93;13.60;;;20.80;99.90;;;;;;5073457;28;20028;-76
2021/11/04 02:43:37;;;;;;;14.68;13.70;;;20.70;99.90;;;;;;5074567;28;20025;-75
2021/11/04 02:46:10;;;;;;;15.27;13.90;;;20.80;99.90;;;;;;5073306;28;20501;-75
2021/11/04 02:48:41;;;;;;;15.50;14.07;;;20.90;99.90;;;;;;5071929;28;20466;-76
2021/11/04 02:51:11;;;;;;;15.35;14.15;;;21.00;99.90;;;;;;5074413;28;20032;-75
2021/11/04 02:53:44;;;;;;;14.82;13.70;;;21.10;99.90;;;;;;5072997;28;20043;-76
2021/11/04 02:56:11;;;;;;;15.38;14.27;;;21.20;99.90;;;;;;5073487;28;20020;-74
2021/11/04 02:58:39;;;;;;;14.75;13.50;;;21.30;99.90;;;;;;5074224;28;20045;-75
2021/11/04 03:01:07;;;;;;;14.80;13.45;;;21.40;99.90;;;;;;5074209;28;20027;-76
2021/11/04 03:03:34;;;;;;;14.48;13.50;;;21.40;99.90;;;;;;5074021;28;20024;-76
2021/11/04 03:06:09;;;;;;;14.52;13.73;;;21.40;99.90;;;;;;5074292;28;20025;-77
2021/11/04 03:08:36;;;;;;;14.30;13.30;;;21.50;99.90;;;;;;5056810;28;20046;-77
2021/11/04 03:11:04;;;;;;;13.38;12.40;;;21.50;99.90;;;;;;5074375;28;20050;-77
2021/11/04 03:13:31;;;;;;;12.93;12.05;;;21.40;99.90;;;;;;5072665;28;20028;-75
2021/11/04 03:16:00;;;;;;;12.07;11.27;;;21.20;99.90;;;;;;5074106;28;20032;-76
2021/11/04 03:18:28;;;;;;;11.65;10.90;;;21.20;99.90;;;;;;5073780;28;20045;-75
2021/11/04 03:20:56;;;;;;;12.02;11.23;;;21.10;99.90;;;;;;5074159;28;20024;-74
2021/11/04 03:23:23;;;;;;;12.25;11.20;;;21.10;99.90;;;;;;5074039;28;20107;-76
2021/11/04 03:25:52;;;;;;;12.43;11.38;;;21.00;99.90;;;;;;5074131;28;20024;-77
2021/11/04 03:28:20;;;;;;;11.63;10.93;;;21.10;99.90;;;;;;5074084;28;20107;-75
2021/11/04 03:30:48;;;;;;;12.02;11.13;;;20.90;99.90;;;;;;5073813;28;20017;-75
2021/11/04 03:33:16;;;;;;;12.85;11.90;;;20.70;99.90;;;;;;5073786;28;20024;-76
2021/11/04 03:35:45;;;;;;;12.85;12.05;;;20.70;99.90;;;;;;5072432;28;20025;-76
2021/11/04 03:38:14;;;;;;;13.00;12.27;;;20.90;99.90;;;;;;5073642;28;20021;-76
2021/11/04 03:40:43;;;;;;;13.85;12.93;;;21.00;99.90;;;;;;5073838;28;20035;-75
2021/11/04 03:43:11;;;;;;;12.35;11.45;;;21.10;99.90;;;;;;5074140;28;20024;-77
2021/11/04 03:45:38;;;;;;;12.05;11.30;;;21.00;99.90;;;;;;5073905;28;20025;-78
2021/11/04 03:48:07;;;;;;;11.77;11.07;;;21.00;99.90;;;;;;5073845;28;20029;-78
2021/11/04 03:50:36;;;;;;;12.00;11.10;;;21.00;99.90;;;;;;5073708;28;20052;-78
2021/11/04 03:53:05;;;;;;;12.48;11.57;;;21.00;99.90;;;;;;5073838;28;20107;-77
2021/11/04 03:55:33;;;;;;;12.27;11.27;;;20.90;99.90;;;;;;5072702;28;20029;-78
2021/11/04 03:58:01;;;;;;;12.70;11.68;;;20.90;99.90;;;;;;5073781;28;20099;-79
2021/11/04 04:00:29;;;;;;;12.90;11.90;;;20.90;99.90;;;;;;5072533;28;20021;-79
2021/11/04 04:02:56;;;;;;;12.45;11.75;;;21.00;99.90;;;;;;5072352;28;20028;-79
2021/11/04 04:05:33;;;;;;;12.30;11.60;;;21.00;99.90;;;;;;5073521;28;20048;-79
2021/11/04 04:08:01;;;;;;;11.95;11.27;;;21.10;99.90;;;;;;5073474;28;20074;-74
2021/11/04 04:10:32;;;;;;;12.45;11.68;;;21.20;99.90;;;;;;5071877;28;20033;-73
2021/11/04 04:13:01;;;;;;;12.02;11.10;;;21.10;99.90;;;;;;5073226;28;20031;-75
2021/11/04 04:15:28;;;;;;;11.27;10.68;;;21.10;99.90;;;;;;5073269;28;20032;-76
2021/11/04 04:17:56;;;;;;;12.38;11.60;;;20.90;99.90;;;;;;5073118;28;20096;-77
2021/11/04 04:20:25;;;;;;;12.45;11.45;;;21.00;99.90;;;;;;5073043;28;20021;-74
2021/11/04 04:22:52;;;;;;;11.55;10.68;;;20.70;99.90;;;;;;5073220;28;20390;-71
2021/11/04 04:25:20;;;;;;;11.55;10.85;;;20.60;99.90;;;;;;5073322;28;20028;-72
2021/11/04 04:27:47;;;;;;;11.32;10.38;;;20.50;99.90;;;;;;5073293;28;20108;-75
2021/11/04 04:30:14;;;;;;;12.10;11.27;;;20.30;99.90;;;;;;5073133;28;20138;-73
2021/11/04 04:32:42;;;;;;;12.13;11.23;;;20.30;99.90;;;;;;5071995;28;20492;-70
2021/11/04 04:35:09;;;;;;;10.50;9.93;;;20.10;99.90;;;;;;5073125;28;20051;-72
2021/11/04 04:37:36;;;;;;;11.18;10.48;;;20.00;99.90;;;;;;5073450;28;20047;-71
2021/11/04 04:40:04;;;;;;;11.13;10.30;;;20.00;99.90;;;;;;5073054;28;20118;-78
2021/11/04 04:42:32;;;;;;;11.95;11.13;;;20.00;99.90;;;;;;5071786;28;20025;-73
2021/11/04 04:44:59;;;;;;;12.52;11.57;;;20.00;99.90;;;;;;5073139;28;20032;-73
2021/11/04 04:47:26;;;;;;;12.55;11.68;;;19.90;99.90;;;;;;5073237;28;20024;-75
2021/11/04 04:49:58;;;;;;;12.30;11.57;;;19.90;99.90;;;;;;5073463;28;20048;-75
2021/11/04 04:52:27;;;;;;;12.43;11.70;;;19.90;99.90;;;;;;5073347;28;20021;-79
2021/11/04 04:54:55;;;;;;;12.48;11.55;;;19.80;99.90;;;;;;5073569;28;20485;-78
2021/11/04 04:57:23;;;;;;;12.35;11.65;;;19.90;99.90;;;;;;5074130;28;20108;-78
2021/11/04 04:59:58;;;;;;;13.05;12.25;;;19.90;99.90;;;;;;5073213;28;20017;-78
2021/11/04 05:02:27;;;;;;;12.55;11.80;;;19.80;99.90;;;;;;5071754;28;20027;-78
2021/11/04 05:04:55;;;;;;;13.05;12.05;;;19.70;99.90;;;;;;5071619;28;20504;-77
2021/11/04 05:07:22;;;;;;;13.30;12.43;;;19.70;99.90;;;;;;5073276;28;20056;-77
2021/11/04 05:09:50;;;;;;;13.70;12.90;;;19.70;99.90;;;;;;5071673;28;20028;-77
2021/11/04 05:12:17;;;;;;;13.18;12.40;;;19.60;99.90;;;;;;5071653;28;20542;-77
2021/11/04 05:14:44;;;;;;;13.82;12.82;;;19.50;99.90;;;;;;5072750;28;20013;-77
2021/11/04 05:17:12;;;;;;;14.32;13.40;;;19.50;99.90;;;;;;5072656;28;20020;-77
2021/11/04 05:19:39;;;;;;;15.30;14.00;;;19.50;99.90;;;;;;5076429;28;20016;-77
2021/11/04 05:22:06;;;;;;;14.35;13.45;;;19.40;99.90;;;;;;5075557;28;20064;-77
2021/11/04 05:24:36;;;;;;;14.57;13.75;;;19.30;99.90;;;;;;5076439;28;20385;-76
2021/11/04 05:27:06;;;;;;;14.57;13.73;;;19.30;99.90;;;;;;5076546;28;20021;-76
2021/11/04 05:29:33;;;;;;;14.80;13.85;;;19.30;99.90;;;;;;5076146;28;20028;-76
2021/11/04 05:32:06;;;;;;;15.30;14.20;;;19.30;99.90;;;;;;5075205;28;20153;-77
2021/11/04 05:34:42;;;;;;;15.05;14.07;;;19.40;99.90;;;;;;5075214;28;20025;-76
2021/11/04 05:37:10;;;;;;;14.70;13.82;;;19.40;99.90;;;;;;5075083;28;20024;-76
2021/11/04 05:39:38;;;;;;;14.57;13.68;;;19.50;99.90;;;;;;5074741;28;20023;-76
2021/11/04 05:42:08;;;;;;;14.48;13.68;;;19.50;99.90;;;;;;5076601;28;20070;-76
2021/11/04 05:44:36;;;;;;;15.20;14.27;;;19.50;99.90;;;;;;5075795;28;20503;-76
2021/11/04 05:47:04;;;;;;;14.45;13.65;;;19.50;99.90;;;;;;5075705;28;20054;-76
2021/11/04 05:49:32;;;;;;;15.90;14.48;;;19.50;99.90;;;;;;5075682;28;20074;-75
2021/11/04 05:51:59;;;;;;;15.68;14.65;;;19.40;99.90;;;;;;5075656;28;20035;-76
2021/11/04 05:54:27;;;;;;;15.88;14.68;;;19.40;99.90;;;;;;5074387;28;20020;-76
2021/11/04 05:56:54;;;;;;;15.77;14.80;;;19.40;99.90;;;;;;5075586;28;20021;-76
2021/11/04 05:59:21;;;;;;;16.65;15.50;;;19.50;99.90;;;;;;5074470;28;20094;-75
2021/11/04 06:01:49;;;;;;;15.75;14.82;;;19.50;99.90;;;;;;5074211;28;20450;-77
2021/11/04 06:04:16;;;;;;;16.65;15.55;;;19.40;99.90;;;;;;5075456;28;20020;-77
2021/11/04 06:06:43;;;;;;;16.35;15.25;;;19.20;99.90;;;;;;5074075;28;20501;-77
2021/11/04 06:09:11;;;;;;;16.33;15.30;;;19.20;99.90;;;;;;5075414;28;20066;-77
2021/11/04 06:11:38;;;;;;;16.30;15.20;;;19.30;99.90;;;;;;5074001;28;20029;-76
2021/11/04 06:14:07;;;;;;;16.15;15.25;;;19.20;99.90;;;;;;5073713;28;20021;-77
2021/11/04 06:16:34;;;;;;;16.58;15.40;;;19.20;99.90;;;;;;5075084;28;20064;-77
2021/11/04 06:19:02;;;;;;;16.58;15.68;;;19.00;99.90;;;;;;5075242;28;20053;-76
2021/11/04 06:21:29;;;;;;;16.98;15.73;;;19.10;99.90;;;;;;5075259;28;20029;-76
2021/11/04 06:23:56;;;;;;;16.52;15.50;;;19.10;99.90;;;;;;5075352;28;20016;-76
2021/11/04 06:26:24;;;;;;;16.63;15.68;;;19.20;99.90;;;;;;5075157;28;20436;-77
2021/11/04 06:28:51;;;;;;;16.13;15.30;;;19.20;99.90;;;;;;5073922;28;20028;-76
2021/11/04 06:31:19;;;;;;;16.80;15.82;;;19.30;99.90;;;;;;5074965;28;20158;-76
2021/11/04 06:33:47;;;;;;;16.20;15.20;;;19.30;99.90;;;;;;5073569;28;20040;-77
2021/11/04 06:36:14;;;;;;;17.55;16.45;;;19.40;99.90;;;;;;5075150;28;20095;-76
2021/11/04 06:38:41;;;;;;;17.25;16.08;;;19.40;99.90;;;;;;5073625;28;20021;-77
2021/11/04 06:41:09;;;;;;;17.30;16.20;;;19.40;99.90;;;;;;5073454;28;20020;-76
2021/11/04 06:43:36;;;;;;;16.75;15.75;;;19.40;99.90;;;;;;5073514;28;20401;-76
2021/11/04 06:46:04;;;;;;;16.98;15.90;;;19.80;99.90;;;;;;5074569;28;20020;-76
2021/11/04 06:48:49;;;;;;;17.13;15.80;;;19.40;99.90;;;;;;5074681;28;20479;-76
2021/11/04 06:51:19;;;;;;;16.50;15.35;;;19.40;99.90;;;;;;5074927;28;20088;-76
2021/11/04 06:53:56;;;;;;;16.13;14.95;;;19.40;99.90;;;;;;5073082;28;20033;-76
2021/11/04 06:56:25;;;;;;;16.42;15.43;;;19.40;99.90;;;;;;5074787;28;20373;-76
2021/11/04 06:58:56;;;;;;;17.17;16.13;;;19.40;99.90;;;;;;5074413;28;20103;-78
2021/11/04 07:01:24;;;;;;;16.20;15.30;;;19.30;99.90;;;;;;5074553;28;20027;-78
2021/11/04 07:04:34;;;;;;;16.33;15.38;;;19.30;99.90;;;;;;5074730;28;20044;-77
2021/11/04 07:07:07;;;;;;;17.50;16.40;;;19.30;99.90;;;;;;5044890;28;20038;-77
2021/11/04 07:09:38;;;;;;;16.80;15.60;;;19.30;99.90;;;;;;5074187;28;20041;-77
2021/11/04 07:12:08;;;;;;;16.63;15.60;;;19.20;99.90;;;;;;5072847;28;20048;-77
2021/11/04 07:14:39;;;;;;;16.80;15.60;;;19.10;99.90;;;;;;5074300;28;20028;-77
2021/11/04 07:17:07;;;;;;;16.52;15.63;;;19.10;99.90;;;;;;5074074;28;20024;-77
2021/11/04 07:19:34;;;;;;;16.98;15.88;;;19.00;99.90;;;;;;5072821;28;20032;-77
2021/11/04 07:22:31;;;;;;;17.20;15.75;;;19.00;99.90;;;;;;5072717;28;20342;-77
2021/11/04 07:25:14;;;;;;;16.63;15.63;;;19.00;99.90;;;;;;5074176;28;20024;-77
2021/11/04 07:27:49;;;;;;;16.00;14.98;;;19.00;99.90;;;;;;5073985;28;20042;-76
2021/11/04 07:30:19;;;;;;;16.52;15.45;;;19.00;99.90;;;;;;5074180;28;20016;-78
2021/11/04 07:32:52;;;;;;;17.70;16.60;;;19.00;99.90;;;;;;5072674;28;20028;-78
2021/11/04 07:35:25;;;;;;;16.45;15.55;;;19.00;99.90;;;;;;5074990;28;20025;-77
2021/11/04 07:37:53;;;;;;;17.10;16.02;;;19.00;99.90;;;;;;5073926;28;20385;-77
2021/11/04 07:40:22;;;;;;;17.27;16.30;;;18.90;99.90;;;;;;5073592;28;20024;-77
2021/11/04 07:42:50;;;;;;;16.98;15.90;;;18.90;99.90;;;;;;5072571;28;20025;-78
2021/11/04 07:45:18;;;;;;;17.23;16.02;;;18.80;99.90;;;;;;5073663;28;20107;-78
2021/11/04 07:47:46;;;;;;;16.80;15.80;;;18.90;99.90;;;;;;5073671;28;20016;-78
2021/11/04 07:50:17;;;;;;;17.98;16.58;;;18.90;99.90;;;;;;5072245;28;20024;-78
2021/11/04 07:52:45;;;;;;;16.50;15.40;;;18.90;99.90;;;;;;5072299;28;20393;-78
2021/11/04 07:55:13;;;;;;;17.13;16.17;;;18.90;99.90;;;;;;5072199;28;20025;-78
2021/11/04 07:57:41;;;;;;;18.13;16.73;;;18.90;99.90;;;;;;5073504;28;20021;-77
2021/11/04 08:00:15;;;;;;;17.40;16.20;;;18.90;99.90;;;;;;5073599;28;20036;-78
2021/11/04 08:02:43;;;;;;;18.20;16.70;;;18.80;99.90;;;;;;5072430;28;20020;-78
2021/11/04 08:05:12;;;;;;;18.15;16.80;;;18.80;99.90;;;;;;5072302;28;20452;-78
2021/11/04 08:07:41;;;;;;;18.25;17.02;;;18.80;99.90;;;;;;5072525;28;20054;-78
2021/11/04 08:10:11;;;;;;;18.98;17.60;;;18.80;99.90;;;;;;5073333;28;20069;-78
2021/11/04 08:12:39;;;;;;;18.58;17.20;;;18.80;99.90;;;;;;5073354;28;20066;-78
2021/11/04 08:15:09;;;;;;;18.20;17.00;;;18.80;99.90;;;;;;5072211;28;20025;-78
2021/11/04 08:17:37;;;;;;;18.77;17.27;;;18.70;99.90;;;;;;5071722;28;20048;-78
2021/11/04 08:20:09;;;;;;;17.85;16.50;;;18.80;99.90;;;;;;5073255;28;20409;-78
2021/11/04 08:22:37;;;;;;;17.50;16.15;;;18.70;99.90;;;;;;5073068;28;20029;-77
2021/11/04 08:25:06;;;;;;;18.58;17.00;;;18.70;99.90;;;;;;5072930;28;20024;-77
2021/11/04 08:27:34;;;;;;;19.73;18.30;;;18.70;99.90;;;;;;5073093;28;20489;-77
2021/11/04 08:30:01;;;;;;;20.23;18.80;;;18.70;99.90;;;;;;5073220;28;20103;-77
2021/11/04 08:32:29;;;;;;;19.80;18.13;;;18.70;99.90;;;;;;5072969;28;20059;-77
2021/11/04 08:34:56;;;;;;;20.42;18.55;;;18.70;99.90;;;;;;5072085;28;20033;-76
2021/11/04 08:37:23;;;;;;;20.85;18.73;;;18.70;99.90;;;;;;5071743;28;20074;-76
2021/11/04 08:39:51;;;;;;;20.27;18.73;;;18.60;99.90;;;;;;5073002;28;20394;-76
2021/11/04 08:42:18;;;;;;;19.73;18.30;;;18.60;99.90;;;;;;5073150;28;20027;-75
2021/11/04 08:44:46;;;;;;;18.77;17.48;;;18.60;99.90;;;;;;5073389;28;20036;-75
2021/11/04 08:47:13;;;;;;;18.38;17.25;;;18.60;99.90;;;;;;5073170;28;20023;-76
2021/11/04 08:49:41;;;;;;;19.73;18.55;;;18.60;99.90;;;;;;5073294;28;20550;-76
2021/11/04 08:52:09;;;;;;;20.83;19.08;;;18.60;99.90;;;;;;5073067;28;20035;-76
2021/11/04 08:54:37;;;;;;;19.80;18.20;;;18.50;99.90;;;;;;5076721;28;20016;-76
2021/11/04 08:57:05;;;;;;;19.92;18.33;;;18.50;99.90;;;;;;5075648;28;20028;-76
2021/11/04 08:59:32;;;;;;;20.80;19.20;;;18.50;99.90;;;;;;5075761;28;20115;-75
2021/11/04 09:01:59;;;;;;;20.60;19.20;;;18.50;99.90;;;;;;5076747;28;20013;-76
2021/11/04 09:04:28;;;;;;;20.45;18.70;;;18.50;99.90;;;;;;5075469;28;20024;-75
2021/11/04 09:06:55;;;;;;;20.48;18.92;;;18.50;99.90;;;;;;5076696;28;20104;-75
2021/11/04 09:09:23;;;;;;;21.00;19.50;;;18.40;99.90;;;;;;5076549;28;20020;-75
2021/11/04 09:11:51;;;;;;;20.55;19.10;;;18.40;99.90;;;;;;5076509;28;20021;-76
2021/11/04 09:14:18;;;;;;;20.88;19.15;;;18.40;99.90;;;;;;5076465;28;20021;-76
2021/11/04 09:16:46;;;;;;;20.20;18.85;;;18.40;99.90;;;;;;5075576;28;20048;-76
2021/11/04 09:19:13;;;;;;;20.45;19.05;;;18.40;99.90;;;;;;5075419;28;20397;-76
2021/11/04 09:21:41;;;;;;;20.75;19.33;;;18.40;99.90;;;;;;5076954;28;20049;-76
2021/11/04 09:24:08;;;;;;;20.88;19.08;;;18.30;99.90;;;;;;5076880;28;20099;-76
2021/11/04 09:26:38;;;;;;;20.70;19.13;;;18.30;99.90;;;;;;5075012;28;20389;-75
2021/11/04 09:29:06;;;;;;;20.83;19.50;;;18.30;99.90;;;;;;5076400;28;20020;-75
2021/11/04 09:31:34;;;;;;;21.55;19.85;;;18.30;99.90;;;;;;5076281;28;20025;-76
2021/11/04 09:34:03;;;;;;;20.38;18.83;;;18.30;99.90;;;;;;5076297;28;20029;-76
2021/11/04 09:36:32;;;;;;;21.38;19.48;;;18.30;99.90;;;;;;5075896;28;20016;-75
2021/11/04 09:39:02;;;;;;;20.98;19.25;;;18.30;99.90;;;;;;5074805;28;20021;-76
2021/11/04 09:41:30;;;;;;;21.38;19.70;;;18.30;99.90;;;;;;5076112;28;20025;-76
2021/11/04 09:43:59;;;;;;;21.15;19.58;;;18.30;99.90;;;;;;5074872;28;20375;-76
2021/11/04 09:46:27;;;;;;;21.00;19.63;;;18.30;99.90;;;;;;5074782;28;20431;-76
2021/11/04 09:48:55;;;;;;;21.85;20.25;;;18.30;99.90;;;;;;5076014;28;20024;-75
2021/11/04 09:51:24;;;;;;;22.08;20.42;;;18.30;99.90;;;;;;5075303;28;20033;-76
2021/11/04 09:53:52;;;;;;;21.17;19.80;;;18.20;99.90;;;;;;5074921;28;20028;-76
2021/11/04 09:56:20;;;;;;;22.65;21.05;;;18.30;99.90;;;;;;5076938;28;20024;-75
2021/11/04 09:58:48;;;;;;;21.63;20.02;;;18.30;99.90;;;;;;5076707;28;20048;-75
2021/11/04 10:01:25;;;;;;;21.27;19.88;;;18.20;99.90;;;;;;5076468;28;20021;-76
2021/11/04 10:03:54;;;;;;;21.73;20.05;;;18.20;99.90;;;;;;5075941;28;20024;-76
2021/11/04 10:06:30;;;;;;;21.63;20.20;;;18.20;99.90;;;;;;5074644;28;20090;-76
2021/11/04 10:09:00;;;;;;;22.83;21.38;;;18.20;99.90;;;;;;5075859;28;20040;-76
2021/11/04 10:11:36;;;;;;;23.00;21.08;;;18.20;99.90;;;;;;5075541;28;20025;-77
2021/11/04 10:14:06;;;;;;;22.73;20.77;;;18.20;99.90;;;;;;5075679;28;20067;-76
2021/11/04 10:16:35;;;;;;;23.88;21.85;;;18.20;99.90;;;;;;5075378;28;20066;-76
2021/11/04 10:19:10;;;;;;;23.63;21.73;;;18.20;99.90;;;;;;5075588;28;20520;-76
2021/11/04 10:21:44;;;;;;;22.73;21.23;;;18.20;99.90;;;;;;5075389;28;20012;-76
2021/11/04 10:24:24;;;;;;;22.13;20.58;;;18.20;99.90;;;;;;5074052;28;20024;-76
2021/11/04 10:26:56;;;;;;;22.25;20.58;;;18.20;99.90;;;;;;5074001;28;20020;-77
2021/11/04 10:29:37;;;;;;;22.95;21.02;;;18.20;99.90;;;;;;5075301;28;20032;-76
2021/11/04 10:32:05;;;;;;;21.83;20.00;;;18.20;99.90;;;;;;5073928;28;20024;-76
2021/11/04 10:34:38;;;;;;;22.30;20.15;;;18.20;99.90;;;;;;5075156;28;20069;-76
2021/11/04 10:37:26;;;;;;;21.83;20.15;;;18.20;99.90;;;;;;5073834;28;20020;-76
2021/11/04 10:39:54;;;;;;;21.38;20.08;;;18.30;99.90;;;;;;5074843;28;20103;-77
2021/11/04 10:42:21;;;;;;;21.27;19.77;;;18.30;99.90;;;;;;5074982;28;20394;-76
2021/11/04 10:44:49;;;;;;;21.25;19.90;;;18.30;99.90;;;;;;5074737;28;20024;-76
2021/11/04 10:47:21;;;;;;;21.05;19.55;;;18.30;99.90;;;;;;5074837;28;20031;-76
2021/11/04 10:49:51;;;;;;;22.25;20.45;;;18.30;99.90;;;;;;5074736;28;20021;-76
2021/11/04 10:52:27;;;;;;;22.90;20.83;;;18.20;99.90;;;;;;5074831;28;20484;-76
2021/11/04 10:54:56;;;;;;;20.88;19.33;;;18.30;99.90;;;;;;5074793;28;20257;-76
2021/11/04 10:57:41;;;;;;;20.67;18.67;;;18.30;99.90;;;;;;5074446;28;20081;-77
2021/11/04 11:00:16;;;;;;;21.55;20.10;;;18.20;99.90;;;;;;5073308;28;20409;-76
2021/11/04 11:03:01;;;;;;;21.92;20.30;;;18.30;99.90;;;;;;5074464;28;20050;-76
2021/11/04 11:05:30;;;;;;;22.08;20.17;;;18.30;99.90;;;;;;5074667;28;20021;-76
2021/11/04 11:08:02;;;;;;;20.58;19.17;;;18.30;99.90;;;;;;5074576;28;20104;-76
2021/11/04 11:10:30;;;;;;;22.10;20.45;;;18.30;99.90;;;;;;5074553;28;20031;-76
2021/11/04 11:12:57;;;;;;;20.95;19.52;;;18.30;99.90;;;;;;5073236;28;20024;-76
2021/11/04 11:15:25;;;;;;;21.50;19.95;;;18.30;99.90;;;;;;5073729;28;20493;-76
2021/11/04 11:17:55;;;;;;;21.27;19.77;;;18.30;99.90;;;;;;5074278;28;20059;-76
2021/11/04 11:20:22;;;;;;;23.45;21.52;;;18.30;99.90;;;;;;5074285;28;20103;-76
2021/11/04 11:22:51;;;;;;;21.65;19.88;;;18.30;99.90;;;;;;5074429;28;20540;-76
2021/11/04 11:25:19;;;;;;;22.55;20.40;;;18.30;99.90;;;;;;5072944;28;20445;-75
2021/11/04 11:27:51;;;;;;;21.92;20.38;;;18.30;99.90;;;;;;5072836;28;20031;-76
2021/11/04 11:30:18;;;;;;;23.25;21.48;;;18.30;99.90;;;;;;5074239;28;20052;-76
2021/11/04 11:32:50;;;;;;;22.33;20.52;;;18.30;99.90;;;;;;5072836;28;20025;-77
2021/11/04 11:35:22;;;;;;;21.80;20.30;;;18.30;99.90;;;;;;5073118;28;20074;-76
2021/11/04 11:37:56;;;;;;;23.23;21.33;;;18.30;99.90;;;;;;5072849;28;20034;-75
2021/11/04 11:40:26;;;;;;;22.20;20.48;;;18.30;99.90;;;;;;5074013;28;20078;-76
2021/11/04 11:43:12;;;;;;;21.52;19.95;;;18.30;99.90;;;;;;5074169;28;20111;-76
2021/11/04 11:45:42;;;;;;;22.10;20.35;;;18.30;99.90;;;;;;5073827;28;20028;-76
2021/11/04 11:48:17;;;;;;;22.30;20.67;;;18.30;99.90;;;;;;5072678;28;20531;-77
2021/11/04 11:50:45;;;;;;;20.67;19.13;;;18.30;99.90;;;;;;5074216;28;20505;-76
2021/11/04 11:53:26;;;;;;;20.60;18.90;;;18.30;99.90;;;;;;5073773;28;20021;-76
2021/11/04 11:55:56;;;;;;;20.42;18.73;;;18.30;99.90;;;;;;5072635;28;20213;-76
2021/11/04 11:58:47;;;;;;;21.17;19.73;;;18.30;99.90;;;;;;5073951;28;20017;-75
2021/11/04 12:01:19;;;;;;;19.90;18.60;;;18.30;99.90;;;;;;5072597;28;20021;-76
2021/11/04 12:03:54;;;;;;;19.95;18.63;;;18.40;99.90;;;;;;5073803;28;20029;-77
2021/11/04 12:06:22;;;;;;;20.83;19.30;;;18.40;99.90;;;;;;5072335;28;20495;-76
2021/11/04 12:08:57;;;;;;;21.65;20.02;;;18.40;99.90;;;;;;5072425;28;20036;-76
2021/11/04 12:11:37;;;;;;;21.67;19.98;;;18.40;99.90;;;;;;5073716;28;20431;-77
2021/11/04 12:14:16;;;;;;;21.70;19.98;;;18.40;99.90;;;;;;5073605;28;20385;-77
2021/11/04 12:19:51;;;;;;;23.08;21.42;;;18.30;99.90;;;;;;5073749;28;20402;-77
2021/11/04 12:22:19;;;;;;;21.70;20.05;;;18.40;99.90;;;;;;5073520;28;20393;-76
2021/11/04 12:25:04;;;;;;;22.38;21.00;;;18.40;99.90;;;;;;5071703;28;20028;-77
2021/11/04 12:27:43;;;;;;;22.30;20.95;;;18.40;99.90;;;;;;5075613;28;20027;-77
2021/11/04 12:30:31;;;;;;;22.70;21.00;;;18.30;99.90;;;;;;5076522;28;20361;-77
2021/11/04 12:33:14;;;;;;;22.05;20.05;;;18.30;99.90;;;;;;5076313;28;20082;-78
2021/11/04 12:35:50;;;;;;;21.42;19.85;;;18.30;99.90;;;;;;5077437;28;20024;-77
2021/11/04 12:38:19;;;;;;;24.05;22.05;;;18.30;99.90;;;;;;5077506;28;20017;-77
2021/11/04 12:40:47;;;;;;;22.15;20.50;;;18.30;99.90;;;;;;5077588;28;20017;-76
2021/11/04 12:43:15;;;;;;;21.40;20.02;;;18.30;99.90;;;;;;5077483;28;20111;-76
2021/11/04 12:45:46;;;;;;;21.35;19.77;;;18.20;99.90;;;;;;5076175;28;20504;-77
2021/11/04 12:48:15;;;;;;;21.70;20.27;;;18.20;99.90;;;;;;5077498;28;20025;-77